Lady Nurgul — 9HA3529 — position and weather

sailwx.info

Track history (hours):
 
Tides and Currents Weather Stations Pressure Air Temp Water Temp Dewpoint Dewpoint Depression Visibility Wind Speed Wind Dir Waves Ship Positions

Lady Nurgul

Last reported at 2018-Jul-16 21:10 UTC. Time now 2018-Jul-21 22:39 UTC.
Position N 53°42' W 000°42'.

Length 92 m; draft 5.4 m.

Type: Cargo ship. MMSI: 229699000.

Date/timePositionNaut miles runAvg speedWind from/ knotsBaromVisibWave heightAir tempDewpointWater temp
2018-Jul-16 21:10N 53°42' W 000°42'3 7.5
2018-Jul-16 20:47N 53°43' W 000°37'2 8.2
2018-Jul-16 20:30N 53°42' W 000°34'3 6.9
2018-Jul-16 20:00N 53°42' W 000°28'5 9.3
2018-Jul-16 19:30N 53°43' W 000°21'4 7.4
2018-Jul-16 19:00N 53°43' W 000°14'4 8.8
2018-Jul-16 18:30N 53°39' W 000°10'5 9.9
2018-Jul-16 18:00N 53°36' W 000°03'5 9.3
2018-Jul-16 17:30N 53°35' E 000°04'5 8.0
2018-Jul-16 16:50N 53°33' E 000°13'10 0.5
2018-Jul-15 21:46N 53°36' E 000°29'0 0.1
2018-Jul-15 21:28N 53°36' E 000°29'0 0.1
2018-Jul-15 20:40N 53°36' E 000°29'0 0.1
2018-Jul-15 20:22N 53°36' E 000°29'0 0.0
2018-Jul-15 19:55N 53°36' E 000°29'0 0.0
2018-Jul-15 01:39N 53°36' E 000°29'0 0.0
2018-Jul-15 01:30N 53°36' E 000°29'0 0.0
2018-Jul-15 01:00N 53°36' E 000°29'0 0.0
2018-Jul-15 00:26N 53°36' E 000°29'0 0.0
2018-Jul-14 23:57N 53°36' E 000°29'0 0.0
2018-Jul-14 23:29N 53°36' E 000°29'0 0.0
2018-Jul-14 23:01N 53°36' E 000°29'0 0.0
2018-Jul-14 22:29N 53°36' E 000°29'0 0.0
2018-Jul-14 20:29N 53°36' E 000°29'0 0.1
2018-Jul-14 19:56N 53°36' E 000°29'0 0.1
2018-Jul-14 19:30N 53°36' E 000°29'11 4.2
2018-Jul-14 16:56N 53°31' E 000°45'2 4.3
2018-Jul-14 16:22N 53°31' E 000°49'16 5.5
2018-Jul-14 13:31N 53°19' E 001°08'4 6.9
2018-Jul-14 13:00N 53°17' E 001°12'4 8.4
2018-Jul-14 12:31N 53°14' E 001°17'4 8.1
2018-Jul-14 12:01N 53°11' E 001°22'4 7.4
2018-Jul-14 11:31N 53°09' E 001°26'3 6.8
2018-Jul-14 11:00N 53°06' E 001°30'3 6.6
2018-Jul-14 10:30N 53°04' E 001°34'3 5.8
2018-Jul-14 10:01N 53°02' E 001°37'2 4.7
2018-Jul-14 09:30N 53°00' E 001°40'2 3.9
2018-Jul-14 09:00N 52°59' E 001°43'2 3.7
2018-Jul-14 08:31N 52°58' E 001°46'2 3.7
2018-Jul-14 08:01N 52°58' E 001°48'2 3.5
2018-Jul-14 07:30N 52°57' E 001°51'2 3.8
2018-Jul-14 07:01N 52°56' E 001°54'2 4.3
2018-Jul-14 06:30N 52°55' E 001°57'3 5.0
2018-Jul-14 06:00N 52°54' E 002°01'2 5.0
2018-Jul-14 05:31N 52°52' E 002°04'3 6.6
2018-Jul-14 05:00N 52°49' E 002°05'5 7.5
2018-Jul-14 04:17N 52°44' E 002°07'4 8.3
2018-Jul-14 03:48N 52°40' E 002°09'3 8.6
2018-Jul-14 03:27N 52°37' E 002°10'7 8.3
2018-Jul-14 02:39N 52°31' E 002°13'1 8.0
2018-Jul-14 02:29N 52°29' E 002°14'4 8.0
2018-Jul-14 02:01N 52°26' E 002°15'4 7.5
2018-Jul-14 01:30N 52°22' E 002°17'4 7.1
2018-Jul-14 01:00N 52°19' E 002°19'3 6.6
2018-Jul-14 00:31N 52°16' E 002°20'3 6.0
2018-Jul-14 00:00N 52°13' E 002°21'3 6.3
2018-Jul-13 23:30N 52°10' E 002°23'3 5.9
2018-Jul-13 23:00N 52°07' E 002°25'3 5.6
2018-Jul-13 22:29N 52°05' E 002°27'3 5.0
2018-Jul-13 21:48N 52°01' E 002°29'3 4.4
2018-Jul-13 21:11N 51°59' E 002°30'1 4.7
2018-Jul-13 21:00N 51°58' E 002°30'3 4.9
2018-Jul-13 20:23N 51°55' E 002°31'3 4.1
2018-Jul-13 19:44N 51°53' E 002°33'2 4.5
2018-Jul-13 19:23N 51°51' E 002°34'2 4.6
2018-Jul-13 18:57N 51°49' E 002°35'3 4.0
2018-Jul-13 18:18N 51°47' E 002°35'2 4.3
2018-Jul-13 17:51N 51°45' E 002°33'5 5.1
2018-Jul-13 16:57N 51°42' E 002°29'5 5.6
2018-Jul-13 15:59N 51°37' E 002°23'3 6.2
2018-Jul-13 15:27N 51°35' E 002°20'3 6.4
2018-Jul-13 14:57N 51°32' E 002°16'3 6.7
2018-Jul-13 14:27N 51°30' E 002°13'6 6.8
2018-Jul-13 13:30N 51°24' E 002°07'3 6.9
2018-Jul-13 13:00N 51°21' E 002°07'3 6.9
2018-Jul-13 12:30N 51°18' E 002°08'4 7.6
2018-Jul-13 12:00N 51°14' E 002°05'4 7.9
2018-Jul-13 11:31N 51°12' E 001°60'4 7.8
2018-Jul-13 11:00N 51°10' E 001°54'4 7.6
2018-Jul-13 10:30N 51°08' E 001°49'4 7.1
2018-Jul-13 10:00N 51°06' E 001°45'3 6.4
2018-Jul-13 09:30N 51°04' E 001°41'3 6.3
2018-Jul-13 09:00N 51°01' E 001°38'3 5.7
2018-Jul-13 08:30N 50°59' E 001°35'3 5.1
2018-Jul-13 07:59N 50°58' E 001°32'2 4.7
2018-Jul-13 07:30N 50°56' E 001°29'2 4.2
2018-Jul-13 07:01N 50°54' E 001°27'2 4.3
2018-Jul-13 06:30N 50°52' E 001°27'2 4.4
2018-Jul-13 05:57N 50°50' E 001°26'2 4.6
2018-Jul-13 05:29N 50°48' E 001°25'2 4.3
2018-Jul-13 04:58N 50°46' E 001°23'2 4.5
2018-Jul-13 04:31N 50°44' E 001°22'3 4.9
2018-Jul-13 03:59N 50°42' E 001°20'3 5.2
2018-Jul-13 03:25N 50°40' E 001°16'110 7.3
2018-Jul-12 12:28N 50°04' W 001°26'2 4.8
2018-Jul-12 11:58N 50°03' W 001°30'2 4.9
2018-Jul-12 11:30N 50°02' W 001°33'44 8.7
2018-Jul-12 06:28N 49°51' W 002°39'511.4
2018-Jul-12 06:00N 49°50' W 002°46'911.0
2018-Jul-12 05:12N 49°46' W 002°59'410.4
2018-Jul-12 04:49N 49°44' W 003°04'510.5
2018-Jul-12 04:22N 49°42' W 003°11'410.3
2018-Jul-12 03:59N 49°40' W 003°16'610.4
2018-Jul-12 03:25N 49°37' W 003°24'22 9.8
2018-Jul-12 01:10N 49°26' W 003°53'1 8.9
2018-Jul-12 01:00N 49°25' W 003°55'53 7.8
2018-Jul-11 18:09N 48°58' W 005°06'3 8.7
2018-Jul-11 17:50N 48°57' W 005°09'3 9.1
2018-Jul-11 17:29N 48°55' W 005°14'14 9.5
2018-Jul-11 16:01N 48°48' W 005°32'1 9.9
2018-Jul-11 15:52N 48°48' W 005°34'  
2018-Jul-08 19:00N 39°24' W 009°50'5 8.3
2018-Jul-08 18:26N 39°19' W 009°50'4 8.7
2018-Jul-08 18:00N 39°15' W 009°50'4 8.8
2018-Jul-08 17:30N 39°11' W 009°50'4 8.5
2018-Jul-08 17:00N 39°07' W 009°50'4 8.4
2018-Jul-08 16:30N 39°03' W 009°50'4 8.9
2018-Jul-08 16:00N 38°58' W 009°51'5 8.9
2018-Jul-08 15:30N 38°54' W 009°50'10 8.8
2018-Jul-08 14:22N 38°44' W 009°50'3 8.9
2018-Jul-08 13:59N 38°40' W 009°50'4 9.3
2018-Jul-08 13:30N 38°36' W 009°49'5 9.4
2018-Jul-08 12:56N 38°31' W 009°48'22 9.2
2018-Jul-08 10:33N 38°09' W 009°41'2 8.9
2018-Jul-08 10:20N 38°07' W 009°41'4 9.0
2018-Jul-08 09:56N 38°04' W 009°40'124 7.5
2018-Jul-07 17:28N 36°26' W 008°03'4 8.9
2018-Jul-07 16:59N 36°25' W 007°58'4 9.1
2018-Jul-07 16:30N 36°24' W 007°53'113 9.5
2018-Jul-07 04:36N 35°58' W 005°36'1 9.8
2018-Jul-07 04:30N 35°58' W 005°35'5 9.2
2018-Jul-07 04:00N 35°59' W 005°30'4 8.1
2018-Jul-07 03:30N 36°00' W 005°25'4 7.6
2018-Jul-07 03:00N 36°01' W 005°20'4 7.5
2018-Jul-07 02:30N 36°02' W 005°16'4 8.0
2018-Jul-07 02:00N 36°03' W 005°11'  
Track history (hours):
 
Tides and Currents Weather Stations Pressure Air Temp Water Temp Dewpoint Dewpoint Depression Visibility Wind Speed Wind Dir Waves Ship Positions

Lady Nurgul

Last reported at 2018-Jul-16 21:10 UTC. Time now 2018-Jul-21 22:39 UTC.
Position N 53°42' W 000°42'.

Length 92 m; draft 5.4 m.

Type: Cargo ship. MMSI: 229699000.

Date/timePositionNaut miles runAvg speedWind from/ knotsBaromVisibWave heightAir tempDewpointWater temp
2018-Jul-16 21:10N 53°42' W 000°42'3 7.5
2018-Jul-16 20:47N 53°43' W 000°37'2 8.2
2018-Jul-16 20:30N 53°42' W 000°34'3 6.9
2018-Jul-16 20:00N 53°42' W 000°28'5 9.3
2018-Jul-16 19:30N 53°43' W 000°21'4 7.4
2018-Jul-16 19:00N 53°43' W 000°14'4 8.8
2018-Jul-16 18:30N 53°39' W 000°10'5 9.9
2018-Jul-16 18:00N 53°36' W 000°03'5 9.3
2018-Jul-16 17:30N 53°35' E 000°04'5 8.0
2018-Jul-16 16:50N 53°33' E 000°13'10 0.5
2018-Jul-15 21:46N 53°36' E 000°29'0 0.1
2018-Jul-15 21:28N 53°36' E 000°29'0 0.1
2018-Jul-15 20:40N 53°36' E 000°29'0 0.1
2018-Jul-15 20:22N 53°36' E 000°29'0 0.0
2018-Jul-15 19:55N 53°36' E 000°29'0 0.0
2018-Jul-15 01:39N 53°36' E 000°29'0 0.0
2018-Jul-15 01:30N 53°36' E 000°29'0 0.0
2018-Jul-15 01:00N 53°36' E 000°29'0 0.0
2018-Jul-15 00:26N 53°36' E 000°29'0 0.0
2018-Jul-14 23:57N 53°36' E 000°29'0 0.0
2018-Jul-14 23:29N 53°36' E 000°29'0 0.0
2018-Jul-14 23:01N 53°36' E 000°29'0 0.0
2018-Jul-14 22:29N 53°36' E 000°29'0 0.0
2018-Jul-14 20:29N 53°36' E 000°29'0 0.1
2018-Jul-14 19:56N 53°36' E 000°29'0 0.1
2018-Jul-14 19:30N 53°36' E 000°29'11 4.2
2018-Jul-14 16:56N 53°31' E 000°45'2 4.3
2018-Jul-14 16:22N 53°31' E 000°49'16 5.5
2018-Jul-14 13:31N 53°19' E 001°08'4 6.9
2018-Jul-14 13:00N 53°17' E 001°12'4 8.4
2018-Jul-14 12:31N 53°14' E 001°17'4 8.1
2018-Jul-14 12:01N 53°11' E 001°22'4 7.4
2018-Jul-14 11:31N 53°09' E 001°26'3 6.8
2018-Jul-14 11:00N 53°06' E 001°30'3 6.6
2018-Jul-14 10:30N 53°04' E 001°34'3 5.8
2018-Jul-14 10:01N 53°02' E 001°37'2 4.7
2018-Jul-14 09:30N 53°00' E 001°40'2 3.9
2018-Jul-14 09:00N 52°59' E 001°43'2 3.7
2018-Jul-14 08:31N 52°58' E 001°46'2 3.7
2018-Jul-14 08:01N 52°58' E 001°48'2 3.5
2018-Jul-14 07:30N 52°57' E 001°51'2 3.8
2018-Jul-14 07:01N 52°56' E 001°54'2 4.3
2018-Jul-14 06:30N 52°55' E 001°57'3 5.0
2018-Jul-14 06:00N 52°54' E 002°01'2 5.0
2018-Jul-14 05:31N 52°52' E 002°04'3 6.6
2018-Jul-14 05:00N 52°49' E 002°05'5 7.5
2018-Jul-14 04:17N 52°44' E 002°07'4 8.3
2018-Jul-14 03:48N 52°40' E 002°09'3 8.6
2018-Jul-14 03:27N 52°37' E 002°10'7 8.3
2018-Jul-14 02:39N 52°31' E 002°13'1 8.0
2018-Jul-14 02:29N 52°29' E 002°14'4 8.0
2018-Jul-14 02:01N 52°26' E 002°15'4 7.5
2018-Jul-14 01:30N 52°22' E 002°17'4 7.1
2018-Jul-14 01:00N 52°19' E 002°19'3 6.6
2018-Jul-14 00:31N 52°16' E 002°20'3 6.0
2018-Jul-14 00:00N 52°13' E 002°21'3 6.3
2018-Jul-13 23:30N 52°10' E 002°23'3 5.9
2018-Jul-13 23:00N 52°07' E 002°25'3 5.6
2018-Jul-13 22:29N 52°05' E 002°27'3 5.0
2018-Jul-13 21:48N 52°01' E 002°29'3 4.4
2018-Jul-13 21:11N 51°59' E 002°30'1 4.7
2018-Jul-13 21:00N 51°58' E 002°30'3 4.9
2018-Jul-13 20:23N 51°55' E 002°31'3 4.1
2018-Jul-13 19:44N 51°53' E 002°33'2 4.5
2018-Jul-13 19:23N 51°51' E 002°34'2 4.6
2018-Jul-13 18:57N 51°49' E 002°35'3 4.0
2018-Jul-13 18:18N 51°47' E 002°35'2 4.3
2018-Jul-13 17:51N 51°45' E 002°33'5 5.1
2018-Jul-13 16:57N 51°42' E 002°29'5 5.6
2018-Jul-13 15:59N 51°37' E 002°23'3 6.2
2018-Jul-13 15:27N 51°35' E 002°20'3 6.4
2018-Jul-13 14:57N 51°32' E 002°16'3 6.7
2018-Jul-13 14:27N 51°30' E 002°13'6 6.8
2018-Jul-13 13:30N 51°24' E 002°07'3 6.9
2018-Jul-13 13:00N 51°21' E 002°07'3 6.9
2018-Jul-13 12:30N 51°18' E 002°08'4 7.6
2018-Jul-13 12:00N 51°14' E 002°05'4 7.9
2018-Jul-13 11:31N 51°12' E 001°60'4 7.8
2018-Jul-13 11:00N 51°10' E 001°54'4 7.6
2018-Jul-13 10:30N 51°08' E 001°49'4 7.1
2018-Jul-13 10:00N 51°06' E 001°45'3 6.4
2018-Jul-13 09:30N 51°04' E 001°41'3 6.3
2018-Jul-13 09:00N 51°01' E 001°38'3 5.7
2018-Jul-13 08:30N 50°59' E 001°35'3 5.1
2018-Jul-13 07:59N 50°58' E 001°32'2 4.7
2018-Jul-13 07:30N 50°56' E 001°29'2 4.2
2018-Jul-13 07:01N 50°54' E 001°27'2 4.3
2018-Jul-13 06:30N 50°52' E 001°27'2 4.4
2018-Jul-13 05:57N 50°50' E 001°26'2 4.6
2018-Jul-13 05:29N 50°48' E 001°25'2 4.3
2018-Jul-13 04:58N 50°46' E 001°23'2 4.5
2018-Jul-13 04:31N 50°44' E 001°22'3 4.9
2018-Jul-13 03:59N 50°42' E 001°20'3 5.2
2018-Jul-13 03:25N 50°40' E 001°16'110 7.3
2018-Jul-12 12:28N 50°04' W 001°26'2 4.8
2018-Jul-12 11:58N 50°03' W 001°30'2 4.9
2018-Jul-12 11:30N 50°02' W 001°33'44 8.7
2018-Jul-12 06:28N 49°51' W 002°39'511.4
2018-Jul-12 06:00N 49°50' W 002°46'911.0
2018-Jul-12 05:12N 49°46' W 002°59'410.4
2018-Jul-12 04:49N 49°44' W 003°04'510.5
2018-Jul-12 04:22N 49°42' W 003°11'410.3
2018-Jul-12 03:59N 49°40' W 003°16'610.4
2018-Jul-12 03:25N 49°37' W 003°24'22 9.8
2018-Jul-12 01:10N 49°26' W 003°53'1 8.9
2018-Jul-12 01:00N 49°25' W 003°55'53 7.8
2018-Jul-11 18:09N 48°58' W 005°06'3 8.7
2018-Jul-11 17:50N 48°57' W 005°09'3 9.1
2018-Jul-11 17:29N 48°55' W 005°14'14 9.5
2018-Jul-11 16:01N 48°48' W 005°32'1 9.9
2018-Jul-11 15:52N 48°48' W 005°34'  
2018-Jul-08 19:00N 39°24' W 009°50'5 8.3
2018-Jul-08 18:26N 39°19' W 009°50'4 8.7
2018-Jul-08 18:00N 39°15' W 009°50'4 8.8
2018-Jul-08 17:30N 39°11' W 009°50'4 8.5
2018-Jul-08 17:00N 39°07' W 009°50'4 8.4
2018-Jul-08 16:30N 39°03' W 009°50'4 8.9
2018-Jul-08 16:00N 38°58' W 009°51'5 8.9
2018-Jul-08 15:30N 38°54' W 009°50'10 8.8
2018-Jul-08 14:22N 38°44' W 009°50'3 8.9
2018-Jul-08 13:59N 38°40' W 009°50'4 9.3
2018-Jul-08 13:30N 38°36' W 009°49'5 9.4
2018-Jul-08 12:56N 38°31' W 009°48'22 9.2
2018-Jul-08 10:33N 38°09' W 009°41'2 8.9
2018-Jul-08 10:20N 38°07' W 009°41'4 9.0
2018-Jul-08 09:56N 38°04' W 009°40'124 7.5
2018-Jul-07 17:28N 36°26' W 008°03'4 8.9
2018-Jul-07 16:59N 36°25' W 007°58'4 9.1
2018-Jul-07 16:30N 36°24' W 007°53'113 9.5
2018-Jul-07 04:36N 35°58' W 005°36'1 9.8
2018-Jul-07 04:30N 35°58' W 005°35'5 9.2
2018-Jul-07 04:00N 35°59' W 005°30'4 8.1
2018-Jul-07 03:30N 36°00' W 005°25'4 7.6
2018-Jul-07 03:00N 36°01' W 005°20'4 7.5
2018-Jul-07 02:30N 36°02' W 005°16'4 8.0
2018-Jul-07 02:00N 36°03' W 005°11'  

Dump ship's entire track history